Time;durP1;ratioP1;P1;durP2;ratioP2;P2;SDS_P1;SDS_P2;PMS_P1;PMS_P2;Temp;Humidity;BMP_temperature;BMP_pressure;BME280_temperature;BME280_humidity;BME280_pressure;Samples;Min_cycle;Max_cycle;Signal;HPM_P1;HPM_P2
2021/10/15 00:01:09;;;;;;;;;;;12.40;93.40;;;;;;4973816;28;20304;-71
2021/10/15 00:03:34;;;;;;;;;;;12.40;93.50;;;;;;4968993;28;19953;-71
2021/10/15 00:06:00;;;;;;;;;;;12.40;93.30;;;;;;4969776;28;19910;-71
2021/10/15 00:08:25;;;;;;;;;;;12.40;93.40;;;;;;4975272;28;19910;-71
2021/10/15 00:10:51;;;;;;;;;;;12.40;93.50;;;;;;4975891;28;19914;-71
2021/10/15 00:13:16;;;;;;;;;;;12.40;93.30;;;;;;4974894;28;19914;-71
2021/10/15 00:15:42;;;;;;;;;;;12.40;93.40;;;;;;4972396;28;19992;-71
2021/10/15 00:18:07;;;;;;;;;;;12.40;93.40;;;;;;4972380;28;20373;-71
2021/10/15 00:20:33;;;;;;;;;;;12.40;93.40;;;;;;4968718;28;19913;-71
2021/10/15 00:22:58;;;;;;;;;;;12.40;93.50;;;;;;4975008;28;20047;-71
2021/10/15 00:25:24;;;;;;;;;;;12.30;93.70;;;;;;4976954;28;19910;-71
2021/10/15 00:27:49;;;;;;;;;;;12.40;93.80;;;;;;4956977;28;20353;-70
2021/10/15 00:30:15;;;;;;;;;;;12.30;93.90;;;;;;4971483;28;19928;-71
2021/10/15 00:32:40;;;;;;;;;;;12.30;94.00;;;;;;4966511;28;19949;-71
2021/10/15 00:35:06;;;;;;;;;;;12.30;93.80;;;;;;4965069;28;20375;-70
2021/10/15 00:37:31;;;;;;;;;;;12.40;93.50;;;;;;4978069;28;19929;-71
2021/10/15 00:39:57;;;;;;;;;;;12.40;93.50;;;;;;4978913;28;20016;-71
2021/10/15 00:42:22;;;;;;;;;;;12.30;93.40;;;;;;4965709;28;20066;-71
2021/10/15 00:44:48;;;;;;;;;;;12.30;93.40;;;;;;4970492;28;19958;-71
2021/10/15 00:47:13;;;;;;;;;;;12.30;93.40;;;;;;4964478;28;20451;-71
2021/10/15 00:49:39;;;;;;;;;;;12.30;93.00;;;;;;4970960;28;19928;-70
2021/10/15 00:52:05;;;;;;;;;;;12.40;92.80;;;;;;4974515;28;19918;-70
2021/10/15 00:54:31;;;;;;;;;;;12.40;92.70;;;;;;4965417;28;20038;-69
2021/10/15 00:56:56;;;;;;;;;;;12.40;93.00;;;;;;4979781;28;19914;-68
2021/10/15 00:59:22;;;;;;;;;;;12.30;93.30;;;;;;4990637;28;19909;-68
2021/10/15 01:01:47;;;;;;;;;;;12.30;93.30;;;;;;4974255;28;20070;-68
2021/10/15 01:04:13;;;;;;;;;;;12.30;93.40;;;;;;4968001;28;19918;-68
2021/10/15 01:06:39;;;;;;;;;;;12.30;93.30;;;;;;4968780;28;20068;-68
2021/10/15 01:09:06;;;;;;;;;;;12.30;93.40;;;;;;4974750;28;20155;-68
2021/10/15 01:11:31;;;;;;;;;;;12.30;93.40;;;;;;4983288;28;19970;-67
2021/10/15 01:13:57;;;;;;;;;;;12.20;93.50;;;;;;4970093;28;19994;-67
2021/10/15 01:16:24;;;;;;;;;;;12.20;93.30;;;;;;4969312;28;20234;-68
2021/10/15 01:18:49;;;;;;;;;;;12.20;93.30;;;;;;4971588;28;19910;-67
2021/10/15 01:21:16;;;;;;;;;;;12.20;93.10;;;;;;4968539;28;19926;-68
2021/10/15 01:23:42;;;;;;;;;;;12.20;92.90;;;;;;4969300;28;20012;-67
2021/10/15 01:26:08;;;;;;;;;;;12.30;92.60;;;;;;4968585;28;19925;-65
2021/10/15 01:28:34;;;;;;;;;;;12.30;92.80;;;;;;4976137;28;19918;-65
2021/10/15 01:31:00;;;;;;;;;;;12.30;92.50;;;;;;4973568;28;19910;-66
2021/10/15 01:33:26;;;;;;;;;;;12.30;91.60;;;;;;4971083;28;19910;-65
2021/10/15 01:35:52;;;;;;;;;;;12.30;91.60;;;;;;4971351;28;19918;-66
2021/10/15 01:38:17;;;;;;;;;;;12.20;91.80;;;;;;4979616;28;20366;-66
2021/10/15 01:40:43;;;;;;;;;;;12.30;91.60;;;;;;4969169;28;20388;-65
2021/10/15 01:43:10;;;;;;;;;;;12.30;91.20;;;;;;4974275;28;19954;-66
2021/10/15 01:45:36;;;;;;;;;;;12.30;91.20;;;;;;4975948;28;19910;-66
2021/10/15 01:48:01;;;;;;;;;;;12.30;90.90;;;;;;4969446;28;19918;-66
2021/10/15 01:50:28;;;;;;;;;;;12.30;91.10;;;;;;4977339;28;19945;-65
2021/10/15 01:52:54;;;;;;;;;;;12.40;90.80;;;;;;4969815;28;19976;-66
2021/10/15 01:55:20;;;;;;;;;;;12.30;90.90;;;;;;4978033;28;19917;-66
2021/10/15 01:57:45;;;;;;;;;;;12.30;91.00;;;;;;4972115;28;20342;-66
2021/10/15 02:00:12;;;;;;;;;;;12.30;91.30;;;;;;4962923;28;19960;-66
2021/10/15 02:02:38;;;;;;;;;;;12.30;91.30;;;;;;4968496;28;19913;-67
2021/10/15 02:05:04;;;;;;;;;;;12.20;91.70;;;;;;4969809;28;19920;-66
2021/10/15 02:07:29;;;;;;;;;;;12.20;91.60;;;;;;4976551;28;19909;-66
2021/10/15 02:09:55;;;;;;;;;;;12.30;91.60;;;;;;4976382;28;19921;-66
2021/10/15 02:12:20;;;;;;;;;;;12.30;91.50;;;;;;4971755;28;19924;-66
2021/10/15 02:14:46;;;;;;;;;;;12.30;91.40;;;;;;4976971;28;19997;-67
2021/10/15 02:17:11;;;;;;;;;;;12.30;91.40;;;;;;4967032;28;19909;-66
2021/10/15 02:19:37;;;;;;;;;;;12.30;91.50;;;;;;4972720;28;19925;-66
2021/10/15 02:22:03;;;;;;;;;;;12.30;91.70;;;;;;4968818;28;19910;-66
2021/10/15 02:24:29;;;;;;;;;;;12.30;91.70;;;;;;4964527;28;19965;-66
2021/10/15 02:26:54;;;;;;;;;;;12.30;91.90;;;;;;4967973;28;19906;-66
2021/10/15 02:29:20;;;;;;;;;;;12.20;92.10;;;;;;4979766;28;19965;-66
2021/10/15 02:31:45;;;;;;;;;;;12.20;92.00;;;;;;4969457;28;19910;-66
2021/10/15 02:34:11;;;;;;;;;;;12.20;92.10;;;;;;4967627;28;19910;-66
2021/10/15 02:36:37;;;;;;;;;;;12.30;91.80;;;;;;4974644;28;19914;-66
2021/10/15 02:39:02;;;;;;;;;;;12.30;91.80;;;;;;4971803;28;19909;-66
2021/10/15 02:41:28;;;;;;;;;;;12.20;92.20;;;;;;4968976;28;19912;-66
2021/10/15 02:43:53;;;;;;;;;;;12.30;92.10;;;;;;4980092;28;19917;-66
2021/10/15 02:46:19;;;;;;;;;;;12.30;92.10;;;;;;4969423;28;19906;-66
2021/10/15 02:48:44;;;;;;;;;;;12.20;92.30;;;;;;4979282;28;19973;-66
2021/10/15 02:51:11;;;;;;;;;;;12.20;91.90;;;;;;4968113;28;20427;-66
2021/10/15 02:53:38;;;;;;;;;;;12.30;92.00;;;;;;4972090;28;19910;-66
2021/10/15 02:56:03;;;;;;;;;;;12.20;92.00;;;;;;4983629;28;19909;-66
2021/10/15 02:58:29;;;;;;;;;;;12.20;91.90;;;;;;4979046;28;19920;-66
2021/10/15 03:00:54;;;;;;;;;;;12.20;91.80;;;;;;4974538;28;20263;-65
2021/10/15 03:03:20;;;;;;;;;;;12.20;91.70;;;;;;4980142;28;19910;-66
2021/10/15 03:05:45;;;;;;;;;;;12.20;91.50;;;;;;4979512;28;20393;-66
2021/10/15 03:08:11;;;;;;;;;;;12.20;91.40;;;;;;4966715;28;19925;-66
2021/10/15 03:10:36;;;;;;;;;;;12.20;91.40;;;;;;4972739;28;20582;-66
2021/10/15 03:13:02;;;;;;;;;;;12.20;91.30;;;;;;4971588;28;19910;-66
2021/10/15 03:15:28;;;;;;;;;;;12.20;91.10;;;;;;4976093;28;20534;-66
2021/10/15 03:17:54;;;;;;;;;;;12.20;91.30;;;;;;4979182;28;19913;-66
2021/10/15 03:20:19;;;;;;;;;;;12.20;91.20;;;;;;4964534;28;19957;-66
2021/10/15 03:22:45;;;;;;;;;;;12.20;91.00;;;;;;4975374;28;19996;-66
2021/10/15 03:25:10;;;;;;;;;;;12.20;90.60;;;;;;4972527;28;19914;-66
2021/10/15 03:27:36;;;;;;;;;;;12.20;90.60;;;;;;4991302;28;20028;-67
2021/10/15 03:30:02;;;;;;;;;;;12.20;90.60;;;;;;4972962;28;19973;-66
2021/10/15 03:32:27;;;;;;;;;;;12.20;90.50;;;;;;4972577;28;19950;-66
2021/10/15 03:34:53;;;;;;;;;;;12.20;90.60;;;;;;4967237;28;20000;-66
2021/10/15 03:37:18;;;;;;;;;;;12.10;90.30;;;;;;4969574;28;19958;-67
2021/10/15 03:39:44;;;;;;;;;;;12.10;90.50;;;;;;4970344;28;19913;-66
2021/10/15 03:42:09;;;;;;;;;;;12.00;90.90;;;;;;4970738;28;19925;-66
2021/10/15 03:44:35;;;;;;;;;;;12.10;90.30;;;;;;4976094;28;20536;-66
2021/10/15 03:47:00;;;;;;;;;;;12.10;90.50;;;;;;4974244;28;20013;-66
2021/10/15 03:49:26;;;;;;;;;;;12.10;90.50;;;;;;4978745;28;19922;-66
2021/10/15 03:51:51;;;;;;;;;;;12.00;90.50;;;;;;4968525;28;19941;-66
2021/10/15 03:54:17;;;;;;;;;;;12.00;90.60;;;;;;4976573;28;19917;-66
2021/10/15 03:56:42;;;;;;;;;;;12.00;90.80;;;;;;4975802;28;19936;-66
2021/10/15 03:59:07;;;;;;;;;;;11.90;90.90;;;;;;4966564;28;19972;-66
2021/10/15 04:01:33;;;;;;;;;;;12.00;90.90;;;;;;4967938;28;19991;-67
2021/10/15 04:03:59;;;;;;;;;;;12.00;90.80;;;;;;4976310;28;19917;-66
2021/10/15 04:06:24;;;;;;;;;;;12.00;90.90;;;;;;4967646;28;20317;-67
2021/10/15 04:08:49;;;;;;;;;;;12.00;90.90;;;;;;4972198;28;19921;-67
2021/10/15 04:11:16;;;;;;;;;;;11.90;91.20;;;;;;4956672;28;19920;-67
2021/10/15 04:13:41;;;;;;;;;;;11.80;91.40;;;;;;4978347;28;19925;-67
2021/10/15 04:16:07;;;;;;;;;;;11.80;91.40;;;;;;4967135;28;19993;-66
2021/10/15 04:18:32;;;;;;;;;;;11.90;91.10;;;;;;4978005;28;19918;-66
2021/10/15 04:20:58;;;;;;;;;;;11.90;91.20;;;;;;4963404;28;20349;-64
2021/10/15 04:23:24;;;;;;;;;;;11.90;91.20;;;;;;4976539;28;19933;-64
2021/10/15 04:25:49;;;;;;;;;;;11.90;91.10;;;;;;4973516;28;19910;-65
2021/10/15 04:28:16;;;;;;;;;;;12.00;90.90;;;;;;4972620;28;19950;-65
2021/10/15 04:30:42;;;;;;;;;;;11.90;91.30;;;;;;4968233;28;19918;-64
2021/10/15 04:33:08;;;;;;;;;;;11.80;91.50;;;;;;4973081;28;19910;-65
2021/10/15 04:35:33;;;;;;;;;;;11.90;91.20;;;;;;4973732;28;20000;-65
2021/10/15 04:37:59;;;;;;;;;;;11.90;91.50;;;;;;4971552;28;19914;-65
2021/10/15 04:40:24;;;;;;;;;;;11.90;91.50;;;;;;4973175;28;20682;-65
2021/10/15 04:42:50;;;;;;;;;;;11.90;91.70;;;;;;4979572;28;20068;-65
2021/10/15 04:45:15;;;;;;;;;;;11.90;91.80;;;;;;4971581;28;19932;-64
2021/10/15 04:47:41;;;;;;;;;;;11.90;92.00;;;;;;4969104;28;19936;-65
2021/10/15 04:50:06;;;;;;;;;;;11.90;92.10;;;;;;4968408;28;19936;-65
2021/10/15 04:52:32;;;;;;;;;;;11.90;92.20;;;;;;4973953;28;19957;-65
2021/10/15 04:54:58;;;;;;;;;;;11.80;92.30;;;;;;4981375;28;19925;-63
2021/10/15 04:57:23;;;;;;;;;;;11.80;92.30;;;;;;4971794;28;19910;-63
2021/10/15 04:59:49;;;;;;;;;;;11.80;92.30;;;;;;4976125;28;20222;-63
2021/10/15 05:02:14;;;;;;;;;;;11.80;92.00;;;;;;4974502;28;19914;-63
2021/10/15 05:04:41;;;;;;;;;;;11.80;92.20;;;;;;4982117;28;19918;-63
2021/10/15 05:07:07;;;;;;;;;;;11.90;91.80;;;;;;4981952;28;20200;-63
2021/10/15 05:11:58;;;;;;;;;;;11.90;91.70;;;;;;4964740;28;20273;-63
2021/10/15 05:14:25;;;;;;;;;;;11.90;91.40;;;;;;4979975;28;19972;-63
2021/10/15 05:16:52;;;;;;;;;;;11.90;91.30;;;;;;4982753;28;19944;-63
2021/10/15 05:19:18;;;;;;;;;;;12.00;91.10;;;;;;4977622;28;19917;-63
2021/10/15 05:21:44;;;;;;;;;;;12.00;90.90;;;;;;4971449;28;20372;-63
2021/10/15 05:24:09;;;;;;;;;;;12.00;90.90;;;;;;4971137;28;19984;-63
2021/10/15 05:26:35;;;;;;;;;;;12.00;90.90;;;;;;4981536;28;19965;-63
2021/10/15 05:29:01;;;;;;;;;;;12.10;90.60;;;;;;4979819;28;19914;-63
2021/10/15 05:31:26;;;;;;;;;;;12.00;90.80;;;;;;4982702;28;20314;-63
2021/10/15 05:33:52;;;;;;;;;;;12.10;90.60;;;;;;4979212;28;19910;-63
2021/10/15 05:36:17;;;;;;;;;;;12.10;90.40;;;;;;4989395;28;19936;-63
2021/10/15 05:38:43;;;;;;;;;;;12.10;90.60;;;;;;4966589;28;19925;-63
2021/10/15 05:41:08;;;;;;;;;;;12.10;90.60;;;;;;4971507;28;19964;-63
2021/10/15 05:43:34;;;;;;;;;;;12.10;90.60;;;;;;4977325;28;19909;-63
2021/10/15 05:45:59;;;;;;;;;;;12.10;90.60;;;;;;4981942;28;20380;-63
2021/10/15 05:48:25;;;;;;;;;;;12.00;90.80;;;;;;4978101;28;19933;-63
2021/10/15 05:50:51;;;;;;;;;;;12.00;90.80;;;;;;4970088;28;19921;-63
2021/10/15 05:53:19;;;;;;;;;;;12.10;90.50;;;;;;4980248;28;19955;-63
2021/10/15 06:01:12;;;;;;;;;;;12.10;90.30;;;;;;4976982;28;19987;-63
2021/10/15 06:03:40;;;;;;;;;;;12.10;90.40;;;;;;4966221;28;19913;-63
2021/10/15 06:14:27;;;;;;;;;;;12.10;90.50;;;;;;4981791;28;20352;-63
2021/10/15 06:16:54;;;;;;;;;;;12.10;90.20;;;;;;4983724;28;20041;-63
2021/10/15 06:19:22;;;;;;;;;;;12.10;90.40;;;;;;4973815;28;20004;-63
2021/10/15 06:21:48;;;;;;;;;;;12.00;90.40;;;;;;4964359;28;19934;-63
2021/10/15 06:24:14;;;;;;;;;;;12.00;90.30;;;;;;4969745;28;19941;-63
2021/10/15 06:26:39;;;;;;;;;;;12.00;90.30;;;;;;4964171;28;19917;-63
2021/10/15 06:29:05;;;;;;;;;;;12.00;90.30;;;;;;4948272;28;20235;-63
2021/10/15 06:31:30;;;;;;;;;;;12.00;90.70;;;;;;4969220;28;19914;-63
2021/10/15 06:33:56;;;;;;;;;;;12.00;90.90;;;;;;4967234;28;20409;-63
2021/10/15 06:36:21;;;;;;;;;;;12.00;91.00;;;;;;4976823;28;19921;-63
2021/10/15 06:38:47;;;;;;;;;;;11.80;91.80;;;;;;4963471;28;20262;-63
2021/10/15 06:41:13;;;;;;;;;;;11.80;92.00;;;;;;4975788;28;20017;-62
2021/10/15 06:43:38;;;;;;;;;;;11.80;92.50;;;;;;4976465;28;19914;-62
2021/10/15 06:46:04;;;;;;;;;;;11.70;93.00;;;;;;4975315;28;19914;-63
2021/10/15 06:48:29;;;;;;;;;;;11.60;93.60;;;;;;4969583;28;19916;-63
2021/10/15 06:50:55;;;;;;;;;;;11.60;94.10;;;;;;4982525;28;19909;-63
2021/10/15 06:53:20;;;;;;;;;;;11.60;94.30;;;;;;4970439;28;20416;-63
2021/10/15 06:55:47;;;;;;;;;;;11.40;94.90;;;;;;4982842;28;19931;-63
2021/10/15 06:58:13;;;;;;;;;;;11.40;95.30;;;;;;4974991;28;19919;-63
2021/10/15 07:00:39;;;;;;;;;;;11.40;95.40;;;;;;4965312;28;19925;-63
2021/10/15 07:03:14;;;;;;;;;;;11.30;95.70;;;;;;4973975;28;20298;-62
2021/10/15 07:05:39;;;;;;;;;;;11.40;95.90;;;;;;4978325;28;20005;-63
2021/10/15 07:08:05;;;;;;;;;;;11.40;95.80;;;;;;4981442;28;20012;-63
2021/10/15 07:10:30;;;;;;;;;;;11.30;96.10;;;;;;4971589;28;19918;-63
2021/10/15 07:12:56;;;;;;;;;;;11.30;96.50;;;;;;4966077;28;19914;-63
2021/10/15 07:15:21;;;;;;;;;;;11.20;97.00;;;;;;4964647;28;19920;-63
2021/10/15 07:17:47;;;;;;;;;;;11.20;97.30;;;;;;4973498;28;20264;-62
2021/10/15 07:20:12;;;;;;;;;;;11.10;97.60;;;;;;4973903;28;19913;-65
2021/10/15 07:22:38;;;;;;;;;;;11.10;97.80;;;;;;4982419;28;19921;-66
2021/10/15 07:25:04;;;;;;;;;;;11.10;98.10;;;;;;4986991;28;19917;-66
2021/10/15 07:27:30;;;;;;;;;;;10.90;98.10;;;;;;4978584;28;19918;-66
2021/10/15 07:29:55;;;;;;;;;;;10.70;98.20;;;;;;4980187;28;19996;-66
2021/10/15 07:32:21;;;;;;;;;;;10.60;98.30;;;;;;4978867;28;19968;-66
2021/10/15 07:34:47;;;;;;;;;;;10.50;98.30;;;;;;4980777;28;19920;-66
2021/10/15 07:37:13;;;;;;;;;;;10.40;98.40;;;;;;4976236;28;19938;-66
2021/10/15 07:39:38;;;;;;;;;;;10.30;98.00;;;;;;4966507;28;20383;-65
2021/10/15 07:42:04;;;;;;;;;;;10.20;98.10;;;;;;4976857;28;19947;-65
2021/10/15 07:44:30;;;;;;;;;;;10.20;97.90;;;;;;4975416;28;19982;-66
2021/10/15 07:46:56;;;;;;;;;;;10.10;97.90;;;;;;4966602;28;19914;-66
2021/10/15 07:49:21;;;;;;;;;;;10.10;97.60;;;;;;4979218;28;19923;-66
2021/10/15 07:51:47;;;;;;;;;;;10.10;97.50;;;;;;4982448;28;19905;-66
2021/10/15 07:54:13;;;;;;;;;;;10.10;97.40;;;;;;4981097;28;19976;-65
2021/10/15 07:56:38;;;;;;;;;;;10.00;97.20;;;;;;4974754;28;19979;-66
2021/10/15 07:59:04;;;;;;;;;;;9.90;97.00;;;;;;4975018;28;19910;-66
2021/10/15 08:01:29;;;;;;;;;;;9.80;96.80;;;;;;4969639;28;20106;-65
2021/10/15 08:03:55;;;;;;;;;;;9.90;96.90;;;;;;4971463;28;19914;-66
2021/10/15 08:06:21;;;;;;;;;;;9.80;97.10;;;;;;4978762;28;19914;-67
2021/10/15 08:08:49;;;;;;;;;;;9.80;96.80;;;;;;4977173;28;19925;-66
2021/10/15 08:11:14;;;;;;;;;;;9.80;97.00;;;;;;4974045;28;20539;-66
2021/10/15 08:13:40;;;;;;;;;;;9.80;97.20;;;;;;4980441;28;19910;-66
2021/10/15 08:16:05;;;;;;;;;;;9.80;97.20;;;;;;4983768;28;20250;-66
2021/10/15 08:18:31;;;;;;;;;;;9.80;97.40;;;;;;4984552;28;19914;-66
2021/10/15 08:20:59;;;;;;;;;;;9.80;97.50;;;;;;4972880;28;19926;-66
2021/10/15 08:23:26;;;;;;;;;;;9.80;97.50;;;;;;4973411;28;19988;-66
2021/10/15 08:25:53;;;;;;;;;;;9.80;97.50;;;;;;4979137;28;19913;-66
2021/10/15 08:28:19;;;;;;;;;;;9.80;97.40;;;;;;4970054;28;19914;-66
2021/10/15 08:30:45;;;;;;;;;;;9.70;97.40;;;;;;4985088;28;19936;-66
2021/10/15 08:33:10;;;;;;;;;;;9.80;97.30;;;;;;4975019;28;20412;-63
2021/10/15 08:35:36;;;;;;;;;;;9.80;97.40;;;;;;4968140;28;20302;-63
2021/10/15 08:38:01;;;;;;;;;;;9.80;97.40;;;;;;4969418;28;20024;-63
2021/10/15 08:40:27;;;;;;;;;;;9.80;97.40;;;;;;4973930;28;20224;-63
2021/10/15 08:42:54;;;;;;;;;;;9.80;97.30;;;;;;4970739;28;20294;-63
2021/10/15 08:45:23;;;;;;;;;;;9.70;97.30;;;;;;4977780;28;19925;-63
2021/10/15 08:47:48;;;;;;;;;;;9.70;97.30;;;;;;4975562;28;20367;-63
2021/10/15 08:50:14;;;;;;;;;;;9.70;97.50;;;;;;4977205;28;19910;-65
2021/10/15 08:52:40;;;;;;;;;;;9.70;97.50;;;;;;4969921;28;19970;-66
2021/10/15 08:55:05;;;;;;;;;;;9.70;97.50;;;;;;4977620;28;20017;-65
2021/10/15 08:57:31;;;;;;;;;;;9.70;97.40;;;;;;4974589;28;19937;-67
2021/10/15 08:59:57;;;;;;;;;;;9.60;97.30;;;;;;4973559;28;20404;-68
2021/10/15 09:02:23;;;;;;;;;;;9.60;97.40;;;;;;4969311;28;19914;-67
2021/10/15 09:04:48;;;;;;;;;;;9.60;97.60;;;;;;4972168;28;20023;-67
2021/10/15 09:07:15;;;;;;;;;;;9.60;97.70;;;;;;4981178;28;19921;-66
2021/10/15 09:09:41;;;;;;;;;;;9.60;97.70;;;;;;4973993;28;19925;-67
2021/10/15 09:12:08;;;;;;;;;;;9.60;97.90;;;;;;4966031;28;20176;-67
2021/10/15 09:14:36;;;;;;;;;;;9.60;97.90;;;;;;4972197;28;19921;-67
2021/10/15 09:17:03;;;;;;;;;;;9.70;98.10;;;;;;4978907;28;20391;-66
2021/10/15 09:19:29;;;;;;;;;;;9.70;98.10;;;;;;4959897;28;20272;-67
2021/10/15 09:22:06;;;;;;;;;;;9.70;98.00;;;;;;4989698;28;19910;-66
2021/10/15 09:24:34;;;;;;;;;;;9.70;98.00;;;;;;4972803;28;20047;-67
2021/10/15 09:27:09;;;;;;;;;;;9.70;98.00;;;;;;4977243;28;19914;-67
2021/10/15 09:29:42;;;;;;;;;;;9.70;98.00;;;;;;4976099;28;19936;-66
2021/10/15 09:32:07;;;;;;;;;;;9.70;97.90;;;;;;4974350;28;20023;-67
2021/10/15 09:34:34;;;;;;;;;;;9.70;97.90;;;;;;4971973;28;20139;-67
2021/10/15 09:36:59;;;;;;;;;;;9.80;97.80;;;;;;4973039;28;20084;-66
2021/10/15 09:39:25;;;;;;;;;;;9.80;97.70;;;;;;4966054;28;19944;-66
2021/10/15 09:41:51;;;;;;;;;;;9.80;97.60;;;;;;4980313;28;19933;-67
2021/10/15 09:44:31;;;;;;;;;;;9.80;97.50;;;;;;4978548;28;20326;-67
2021/10/15 09:47:13;;;;;;;;;;;9.90;97.60;;;;;;4968572;28;19944;-67
2021/10/15 09:49:46;;;;;;;;;;;9.90;97.40;;;;;;4966356;28;19933;-67
2021/10/15 09:52:21;;;;;;;;;;;9.90;97.50;;;;;;4968093;28;19980;-66
2021/10/15 09:54:53;;;;;;;;;;;10.10;97.50;;;;;;4974113;28;20000;-67
2021/10/15 09:57:26;;;;;;;;;;;10.10;97.20;;;;;;4985721;28;20017;-66
2021/10/15 09:59:52;;;;;;;;;;;10.10;97.20;;;;;;4967676;28;19914;-66
2021/10/15 10:02:18;;;;;;;;;;;10.20;97.00;;;;;;4964594;28;19914;-67
2021/10/15 10:04:43;;;;;;;;;;;10.40;96.90;;;;;;4975147;28;20296;-67
2021/10/15 10:07:09;;;;;;;;;;;11.00;96.80;;;;;;4992191;28;19945;-66
2021/10/15 10:09:34;;;;;;;;;;;11.00;95.50;;;;;;4982340;28;19910;-67
2021/10/15 10:12:00;;;;;;;;;;;11.10;94.60;;;;;;4976493;28;20230;-67
2021/10/15 10:14:25;;;;;;;;;;;11.20;93.70;;;;;;4972043;28;20052;-67
2021/10/15 10:16:51;;;;;;;;;;;11.40;93.30;;;;;;4975436;28;20468;-67
2021/10/15 10:19:20;;;;;;;;;;;11.90;93.80;;;;;;4979940;28;20353;-67
2021/10/15 10:21:46;;;;;;;;;;;11.60;91.90;;;;;;4965575;28;19921;-66
2021/10/15 10:24:16;;;;;;;;;;;11.40;92.10;;;;;;4973378;28;19918;-66
2021/10/15 10:26:42;;;;;;;;;;;11.20;93.10;;;;;;4973121;28;19917;-68
2021/10/15 10:29:08;;;;;;;;;;;11.10;93.00;;;;;;4985339;28;19913;-68
2021/10/15 10:31:34;;;;;;;;;;;11.20;92.90;;;;;;4970540;28;19921;-69
2021/10/15 10:34:01;;;;;;;;;;;11.30;91.90;;;;;;4969989;28;20221;-69
2021/10/15 10:36:28;;;;;;;;;;;11.60;92.50;;;;;;4970874;28;20356;-67
2021/10/15 10:38:54;;;;;;;;;;;11.70;90.70;;;;;;4981806;28;19933;-67
2021/10/15 10:41:21;;;;;;;;;;;11.80;88.80;;;;;;4977624;28;20265;-67
2021/10/15 10:43:46;;;;;;;;;;;11.90;91.10;;;;;;4974208;28;20266;-69
2021/10/15 10:46:12;;;;;;;;;;;12.30;90.70;;;;;;4974741;28;20337;-67
2021/10/15 10:48:50;;;;;;;;;;;12.50;88.00;;;;;;4974820;28;20265;-67
2021/10/15 10:51:16;;;;;;;;;;;12.20;88.10;;;;;;4983559;28;20432;-67
2021/10/15 10:54:05;;;;;;;;;;;12.00;88.70;;;;;;4987772;28;20004;-68
2021/10/15 10:56:37;;;;;;;;;;;11.80;89.90;;;;;;4985409;28;19917;-68
2021/10/15 10:59:24;;;;;;;;;;;12.00;90.60;;;;;;4972583;28;20004;-68
2021/10/15 11:02:09;;;;;;;;;;;12.30;89.10;;;;;;4964510;28;20278;-69
2021/10/15 11:04:40;;;;;;;;;;;12.40;87.70;;;;;;4967862;28;19932;-69
2021/10/15 11:07:07;;;;;;;;;;;12.60;87.60;;;;;;4996015;28;20324;-68
2021/10/15 11:09:38;;;;;;;;;;;12.60;86.20;;;;;;4985826;28;19997;-69
2021/10/15 11:12:03;;;;;;;;;;;12.70;87.10;;;;;;4969414;28;20214;-67
2021/10/15 11:14:49;;;;;;;;;;;13.00;87.00;;;;;;4954700;28;19918;-68
2021/10/15 11:17:15;;;;;;;;;;;13.10;85.70;;;;;;4980064;28;19914;-68
2021/10/15 11:19:40;;;;;;;;;;;13.30;85.40;;;;;;4975194;28;20276;-68
2021/10/15 11:22:06;;;;;;;;;;;13.30;85.00;;;;;;4978434;28;19928;-67
2021/10/15 11:24:31;;;;;;;;;;;13.30;83.70;;;;;;4978625;28;20129;-69
2021/10/15 11:26:57;;;;;;;;;;;13.60;84.20;;;;;;4981498;28;19932;-70
2021/10/15 11:29:22;;;;;;;;;;;13.60;81.80;;;;;;4972433;28;19948;-67
2021/10/15 11:31:55;;;;;;;;;;;13.60;82.50;;;;;;4976134;28;19910;-68
2021/10/15 11:34:21;;;;;;;;;;;13.60;81.90;;;;;;4979616;28;19953;-69
2021/10/15 11:36:46;;;;;;;;;;;13.70;80.20;;;;;;4978955;28;20355;-68
2021/10/15 11:39:12;;;;;;;;;;;13.70;81.50;;;;;;4987510;28;20309;-67
2021/10/15 11:41:47;;;;;;;;;;;13.80;79.00;;;;;;4985240;28;20046;-67
2021/10/15 11:44:13;;;;;;;;;;;14.20;81.10;;;;;;4978130;28;19918;-69
2021/10/15 11:46:38;;;;;;;;;;;13.80;79.10;;;;;;4976485;28;19940;-68
2021/10/15 11:49:04;;;;;;;;;;;13.50;79.30;;;;;;4970049;28;19910;-68
2021/10/15 11:51:29;;;;;;;;;;;14.00;80.90;;;;;;4976109;28;19909;-68
2021/10/15 11:53:56;;;;;;;;;;;14.30;78.30;;;;;;4981510;28;19948;-70
2021/10/15 11:56:23;;;;;;;;;;;14.60;73.10;;;;;;4979565;28;19996;-67
2021/10/15 11:58:50;;;;;;;;;;;14.80;75.00;;;;;;4984939;28;20000;-68
2021/10/15 12:01:17;;;;;;;;;;;15.00;74.30;;;;;;4976028;28;19925;-68
2021/10/15 12:03:44;;;;;;;;;;;14.50;73.10;;;;;;4972205;28;19910;-69
2021/10/15 12:06:15;;;;;;;;;;;14.30;72.10;;;;;;4971430;28;19907;-67
2021/10/15 12:08:44;;;;;;;;;;;13.70;70.50;;;;;;4970037;28;19929;-68
2021/10/15 12:11:14;;;;;;;;;;;14.00;70.90;;;;;;4979440;28;20303;-69
2021/10/15 12:13:40;;;;;;;;;;;14.50;69.90;;;;;;4978186;28;19949;-68
2021/10/15 12:16:21;;;;;;;;;;;14.60;70.10;;;;;;4980087;28;19944;-67
2021/10/15 12:18:55;;;;;;;;;;;14.90;69.40;;;;;;4978334;28;20307;-73
2021/10/15 12:21:20;;;;;;;;;;;15.00;67.80;;;;;;4971175;28;20314;-70
2021/10/15 12:23:52;;;;;;;;;;;15.30;68.40;;;;;;4977874;28;19918;-69
2021/10/15 12:26:19;;;;;;;;;;;15.20;67.50;;;;;;4976414;28;19917;-69
2021/10/15 12:28:44;;;;;;;;;;;15.80;67.80;;;;;;4978983;28;19909;-66
2021/10/15 12:31:30;;;;;;;;;;;15.60;64.20;;;;;;4979923;28;20261;-69
2021/10/15 12:34:06;;;;;;;;;;;15.70;65.80;;;;;;4971703;28;19960;-68
2021/10/15 12:36:32;;;;;;;;;;;16.00;66.80;;;;;;4978581;28;20337;-67
2021/10/15 12:39:13;;;;;;;;;;;15.50;63.60;;;;;;4975415;28;19922;-68
2021/10/15 12:41:39;;;;;;;;;;;15.40;65.90;;;;;;4977130;28;19910;-69
2021/10/15 12:44:27;;;;;;;;;;;15.70;66.70;;;;;;4985454;28;19909;-68
2021/10/15 12:46:56;;;;;;;;;;;15.50;67.20;;;;;;4975521;28;19929;-67
2021/10/15 12:49:22;;;;;;;;;;;14.30;68.60;;;;;;4972933;28;20057;-68
2021/10/15 12:51:47;;;;;;;;;;;14.00;70.50;;;;;;4967757;28;20087;-66
2021/10/15 12:54:14;;;;;;;;;;;13.50;72.80;;;;;;4969070;28;19992;-68
2021/10/15 12:56:42;;;;;;;;;;;13.00;74.20;;;;;;4979054;28;20048;-69
2021/10/15 12:59:16;;;;;;;;;;;12.60;74.50;;;;;;4971242;28;19910;-63
2021/10/15 13:01:43;;;;;;;;;;;12.40;75.10;;;;;;4976395;28;19924;-65
2021/10/15 13:04:09;;;;;;;;;;;13.10;74.80;;;;;;4994229;28;19905;-63
2021/10/15 13:06:34;;;;;;;;;;;13.80;73.60;;;;;;4974384;28;19914;-65
2021/10/15 13:09:02;;;;;;;;;;;14.40;72.10;;;;;;4978454;28;20368;-64
2021/10/15 13:11:27;;;;;;;;;;;14.80;69.60;;;;;;4976110;28;19969;-63
2021/10/15 13:13:54;;;;;;;;;;;15.00;66.60;;;;;;4972207;28;19917;-66
2021/10/15 13:16:19;;;;;;;;;;;14.80;66.00;;;;;;4978822;28;20138;-65
2021/10/15 13:18:45;;;;;;;;;;;14.50;64.10;;;;;;4980641;28;20004;-64
2021/10/15 13:21:11;;;;;;;;;;;14.40;65.70;;;;;;4977734;28;19918;-64
2021/10/15 13:23:37;;;;;;;;;;;14.60;65.50;;;;;;4975559;28;19914;-66
2021/10/15 13:26:03;;;;;;;;;;;14.20;64.90;;;;;;4981335;28;20060;-65
2021/10/15 13:28:28;;;;;;;;;;;14.00;67.00;;;;;;4973612;28;19981;-63
2021/10/15 13:30:54;;;;;;;;;;;14.10;66.50;;;;;;4974151;28;20358;-66
2021/10/15 13:33:20;;;;;;;;;;;14.60;66.20;;;;;;4971620;28;19929;-66
2021/10/15 13:35:47;;;;;;;;;;;14.60;65.20;;;;;;4960479;28;19913;-63
2021/10/15 13:38:16;;;;;;;;;;;15.00;65.60;;;;;;4977564;28;19909;-64
2021/10/15 13:41:43;;;;;;;;;;;14.90;66.70;;;;;;4970559;28;20304;-64
2021/10/15 13:43:37;;;;;;;;;;;15.10;66.50;;;;;;4959468;28;19918;-66
2021/10/15 13:46:32;;;;;;;;;;;15.60;64.70;;;;;;4982153;28;19916;-65
2021/10/15 13:51:32;;;;;;;;;;;15.40;64.10;;;;;;4969471;28;20043;-65
2021/10/15 13:53:58;;;;;;;;;;;15.40;64.20;;;;;;4976191;28;20013;-64
2021/10/15 13:56:23;;;;;;;;;;;15.50;65.70;;;;;;4976639;28;19949;-64
2021/10/15 13:58:51;;;;;;;;;;;15.40;66.10;;;;;;4970783;28;20047;-63
2021/10/15 14:01:21;;;;;;;;;;;15.30;66.40;;;;;;4971146;28;20503;-64
2021/10/15 14:06:15;;;;;;;;;;;15.50;67.60;;;;;;4976211;28;19945;-65
2021/10/15 14:08:41;;;;;;;;;;;15.30;67.40;;;;;;4975688;28;19913;-65
2021/10/15 14:11:06;;;;;;;;;;;15.50;67.20;;;;;;4969435;28;19944;-64
2021/10/15 14:13:32;;;;;;;;;;;15.60;68.00;;;;;;4972812;28;19993;-63
2021/10/15 14:15:58;;;;;;;;;;;15.60;67.10;;;;;;4969946;28;19925;-62
2021/10/15 14:18:24;;;;;;;;;;;15.70;66.70;;;;;;4968653;28;19984;-63
2021/10/15 14:20:50;;;;;;;;;;;15.40;67.30;;;;;;4956161;28;19926;-64
2021/10/15 14:23:16;;;;;;;;;;;15.60;67.00;;;;;;4975308;28;20534;-64
2021/10/15 14:25:41;;;;;;;;;;;16.00;65.80;;;;;;4983893;28;19913;-64
2021/10/15 14:28:07;;;;;;;;;;;15.90;64.80;;;;;;4977164;28;20000;-64
2021/10/15 14:30:33;;;;;;;;;;;15.60;65.70;;;;;;4981092;28;19916;-62
2021/10/15 14:33:00;;;;;;;;;;;15.40;66.50;;;;;;4972639;28;19917;-63
2021/10/15 14:35:26;;;;;;;;;;;15.20;65.70;;;;;;4981566;28;20001;-63
2021/10/15 14:37:51;;;;;;;;;;;15.10;66.30;;;;;;4975212;28;19910;-62